sensor_id;sensor_type;location;lat;lon;timestamp;P1;durP1;ratioP1;P2;durP2;ratioP2
59042;SDS011;44826;51.596;5.624;2022-08-03T00:01:17;3.50;;;1.40;;
59042;SDS011;44826;51.596;5.624;2022-08-03T00:03:43;4.95;;;1.50;;
59042;SDS011;44826;51.596;5.624;2022-08-03T00:06:09;5.30;;;1.80;;
59042;SDS011;44826;51.596;5.624;2022-08-03T00:08:34;4.32;;;1.70;;
59042;SDS011;44826;51.596;5.624;2022-08-03T00:10:59;7.28;;;2.13;;
59042;SDS011;44826;51.596;5.624;2022-08-03T00:13:25;6.00;;;1.92;;
59042;SDS011;44826;51.596;5.624;2022-08-03T00:15:51;5.05;;;1.70;;
59042;SDS011;44826;51.596;5.624;2022-08-03T00:18:16;3.33;;;1.77;;
59042;SDS011;44826;51.596;5.624;2022-08-03T00:20:42;4.00;;;1.90;;
59042;SDS011;44826;51.596;5.624;2022-08-03T00:23:07;3.60;;;1.83;;
59042;SDS011;44826;51.596;5.624;2022-08-03T00:25:33;4.22;;;1.70;;
59042;SDS011;44826;51.596;5.624;2022-08-03T00:28:00;4.22;;;1.80;;
59042;SDS011;44826;51.596;5.624;2022-08-03T00:30:26;4.40;;;1.98;;
59042;SDS011;44826;51.596;5.624;2022-08-03T00:32:52;4.88;;;2.20;;
59042;SDS011;44826;51.596;5.624;2022-08-03T00:35:17;5.82;;;2.10;;
59042;SDS011;44826;51.596;5.624;2022-08-03T00:37:42;6.20;;;1.90;;
59042;SDS011;44826;51.596;5.624;2022-08-03T00:40:11;5.28;;;2.00;;
59042;SDS011;44826;51.596;5.624;2022-08-03T00:42:59;6.38;;;2.03;;
59042;SDS011;44826;51.596;5.624;2022-08-03T00:45:38;5.65;;;1.98;;
59042;SDS011;44826;51.596;5.624;2022-08-03T00:48:05;7.55;;;2.00;;
59042;SDS011;44826;51.596;5.624;2022-08-03T00:50:35;4.00;;;2.00;;
59042;SDS011;44826;51.596;5.624;2022-08-03T00:53:04;4.65;;;2.20;;
59042;SDS011;44826;51.596;5.624;2022-08-03T00:55:35;6.45;;;2.22;;
59042;SDS011;44826;51.596;5.624;2022-08-03T00:58:00;9.32;;;2.25;;
59042;SDS011;44826;51.596;5.624;2022-08-03T01:00:30;6.30;;;2.40;;
59042;SDS011;44826;51.596;5.624;2022-08-03T01:02:55;6.90;;;2.30;;
59042;SDS011;44826;51.596;5.624;2022-08-03T01:05:20;6.70;;;2.13;;
59042;SDS011;44826;51.596;5.624;2022-08-03T01:07:56;4.63;;;2.20;;
59042;SDS011;44826;51.596;5.624;2022-08-03T01:10:31;5.72;;;2.35;;
59042;SDS011;44826;51.596;5.624;2022-08-03T01:13:16;3.83;;;2.10;;
59042;SDS011;44826;51.596;5.624;2022-08-03T01:18:31;3.45;;;1.92;;
59042;SDS011;44826;51.596;5.624;2022-08-03T01:21:05;5.43;;;2.00;;
59042;SDS011;44826;51.596;5.624;2022-08-03T01:23:40;7.25;;;2.20;;
59042;SDS011;44826;51.596;5.624;2022-08-03T01:26:41;6.95;;;2.08;;
59042;SDS011;44826;51.596;5.624;2022-08-03T01:32:02;5.90;;;2.20;;
59042;SDS011;44826;51.596;5.624;2022-08-03T01:34:33;5.00;;;2.30;;
59042;SDS011;44826;51.596;5.624;2022-08-03T01:37:04;6.85;;;2.70;;
59042;SDS011;44826;51.596;5.624;2022-08-03T01:39:34;5.43;;;2.00;;
59042;SDS011;44826;51.596;5.624;2022-08-03T01:42:03;7.45;;;2.50;;
59042;SDS011;44826;51.596;5.624;2022-08-03T01:44:30;5.57;;;2.25;;
59042;SDS011;44826;51.596;5.624;2022-08-03T01:47:00;5.22;;;2.13;;
59042;SDS011;44826;51.596;5.624;2022-08-03T01:49:27;10.02;;;2.58;;
59042;SDS011;44826;51.596;5.624;2022-08-03T01:51:55;5.55;;;2.00;;
59042;SDS011;44826;51.596;5.624;2022-08-03T01:54:22;4.07;;;2.15;;
59042;SDS011;44826;51.596;5.624;2022-08-03T01:56:50;6.28;;;2.00;;
59042;SDS011;44826;51.596;5.624;2022-08-03T01:59:18;4.50;;;2.22;;
59042;SDS011;44826;51.596;5.624;2022-08-03T02:01:45;7.35;;;2.55;;
59042;SDS011;44826;51.596;5.624;2022-08-03T02:04:13;6.68;;;2.53;;
59042;SDS011;44826;51.596;5.624;2022-08-03T02:06:41;8.35;;;2.50;;
59042;SDS011;44826;51.596;5.624;2022-08-03T02:09:08;5.93;;;2.08;;
59042;SDS011;44826;51.596;5.624;2022-08-03T02:11:37;3.85;;;2.20;;
59042;SDS011;44826;51.596;5.624;2022-08-03T02:14:03;3.28;;;2.03;;
59042;SDS011;44826;51.596;5.624;2022-08-03T02:16:30;4.93;;;2.33;;
59042;SDS011;44826;51.596;5.624;2022-08-03T02:18:58;7.97;;;2.25;;
59042;SDS011;44826;51.596;5.624;2022-08-03T02:21:26;7.72;;;2.50;;
59042;SDS011;44826;51.596;5.624;2022-08-03T02:23:52;6.28;;;2.20;;
59042;SDS011;44826;51.596;5.624;2022-08-03T02:26:18;5.13;;;2.17;;
59042;SDS011;44826;51.596;5.624;2022-08-03T02:28:46;5.40;;;2.20;;
59042;SDS011;44826;51.596;5.624;2022-08-03T02:31:17;4.45;;;2.10;;
59042;SDS011;44826;51.596;5.624;2022-08-03T02:33:47;3.63;;;2.00;;
59042;SDS011;44826;51.596;5.624;2022-08-03T02:36:17;7.03;;;2.42;;
59042;SDS011;44826;51.596;5.624;2022-08-03T02:38:46;4.35;;;2.17;;
59042;SDS011;44826;51.596;5.624;2022-08-03T02:41:17;8.80;;;2.70;;
59042;SDS011;44826;51.596;5.624;2022-08-03T02:43:48;7.50;;;2.60;;
59042;SDS011;44826;51.596;5.624;2022-08-03T02:46:18;7.15;;;2.47;;
59042;SDS011;44826;51.596;5.624;2022-08-03T02:48:46;6.45;;;2.75;;
59042;SDS011;44826;51.596;5.624;2022-08-03T02:51:12;6.35;;;2.60;;
59042;SDS011;44826;51.596;5.624;2022-08-03T02:53:40;5.57;;;2.08;;
59042;SDS011;44826;51.596;5.624;2022-08-03T02:56:09;5.35;;;2.25;;
59042;SDS011;44826;51.596;5.624;2022-08-03T02:58:35;5.80;;;2.50;;
59042;SDS011;44826;51.596;5.624;2022-08-03T03:01:02;5.18;;;2.50;;
59042;SDS011;44826;51.596;5.624;2022-08-03T03:03:27;6.03;;;2.55;;
59042;SDS011;44826;51.596;5.624;2022-08-03T03:05:54;7.30;;;2.75;;
59042;SDS011;44826;51.596;5.624;2022-08-03T03:08:20;7.78;;;2.60;;
59042;SDS011;44826;51.596;5.624;2022-08-03T03:10:46;3.15;;;2.05;;
59042;SDS011;44826;51.596;5.624;2022-08-03T03:13:13;6.57;;;2.58;;
59042;SDS011;44826;51.596;5.624;2022-08-03T03:15:39;4.90;;;2.97;;
59042;SDS011;44826;51.596;5.624;2022-08-03T03:18:07;7.00;;;2.67;;
59042;SDS011;44826;51.596;5.624;2022-08-03T03:20:34;5.50;;;2.63;;
59042;SDS011;44826;51.596;5.624;2022-08-03T03:23:01;6.97;;;2.78;;
59042;SDS011;44826;51.596;5.624;2022-08-03T03:25:28;6.28;;;2.90;;
59042;SDS011;44826;51.596;5.624;2022-08-03T03:27:55;7.22;;;2.90;;
59042;SDS011;44826;51.596;5.624;2022-08-03T03:30:21;7.05;;;2.72;;
59042;SDS011;44826;51.596;5.624;2022-08-03T03:32:46;7.00;;;2.65;;
59042;SDS011;44826;51.596;5.624;2022-08-03T03:35:12;7.95;;;3.13;;
59042;SDS011;44826;51.596;5.624;2022-08-03T03:37:38;10.80;;;3.15;;
59042;SDS011;44826;51.596;5.624;2022-08-03T03:40:04;8.15;;;2.78;;
59042;SDS011;44826;51.596;5.624;2022-08-03T03:42:29;10.55;;;3.25;;
59042;SDS011;44826;51.596;5.624;2022-08-03T03:44:56;8.77;;;2.72;;
59042;SDS011;44826;51.596;5.624;2022-08-03T03:47:21;11.95;;;2.90;;
59042;SDS011;44826;51.596;5.624;2022-08-03T03:49:47;9.60;;;3.00;;
59042;SDS011;44826;51.596;5.624;2022-08-03T03:52:13;9.45;;;2.88;;
59042;SDS011;44826;51.596;5.624;2022-08-03T03:54:41;8.95;;;3.10;;
59042;SDS011;44826;51.596;5.624;2022-08-03T03:57:08;8.25;;;2.95;;
59042;SDS011;44826;51.596;5.624;2022-08-03T03:59:38;8.18;;;2.92;;
59042;SDS011;44826;51.596;5.624;2022-08-03T04:02:05;9.95;;;2.97;;
59042;SDS011;44826;51.596;5.624;2022-08-03T04:04:32;8.00;;;3.08;;
59042;SDS011;44826;51.596;5.624;2022-08-03T04:07:16;9.98;;;3.20;;
59042;SDS011;44826;51.596;5.624;2022-08-03T04:10:01;8.30;;;2.92;;
59042;SDS011;44826;51.596;5.624;2022-08-03T04:12:48;6.53;;;2.95;;
59042;SDS011;44826;51.596;5.624;2022-08-03T04:15:17;7.47;;;3.05;;
59042;SDS011;44826;51.596;5.624;2022-08-03T04:17:46;5.03;;;2.88;;
59042;SDS011;44826;51.596;5.624;2022-08-03T04:20:14;6.35;;;2.70;;
59042;SDS011;44826;51.596;5.624;2022-08-03T04:22:42;9.35;;;2.85;;
59042;SDS011;44826;51.596;5.624;2022-08-03T04:25:08;7.03;;;2.85;;
59042;SDS011;44826;51.596;5.624;2022-08-03T04:27:38;8.27;;;3.30;;
59042;SDS011;44826;51.596;5.624;2022-08-03T04:30:05;8.32;;;3.25;;
59042;SDS011;44826;51.596;5.624;2022-08-03T04:32:33;7.25;;;2.80;;
59042;SDS011;44826;51.596;5.624;2022-08-03T04:35:01;8.13;;;3.10;;
59042;SDS011;44826;51.596;5.624;2022-08-03T04:40:19;7.85;;;3.05;;
59042;SDS011;44826;51.596;5.624;2022-08-03T04:42:49;5.75;;;2.85;;
59042;SDS011;44826;51.596;5.624;2022-08-03T04:45:17;14.23;;;3.30;;
59042;SDS011;44826;51.596;5.624;2022-08-03T04:47:44;6.18;;;2.78;;
59042;SDS011;44826;51.596;5.624;2022-08-03T04:50:10;7.32;;;3.00;;
59042;SDS011;44826;51.596;5.624;2022-08-03T04:52:36;6.63;;;2.92;;
59042;SDS011;44826;51.596;5.624;2022-08-03T04:55:03;9.02;;;2.95;;
59042;SDS011;44826;51.596;5.624;2022-08-03T04:57:28;6.25;;;2.90;;
59042;SDS011;44826;51.596;5.624;2022-08-03T04:59:53;7.25;;;3.00;;
59042;SDS011;44826;51.596;5.624;2022-08-03T05:02:20;6.20;;;2.90;;
59042;SDS011;44826;51.596;5.624;2022-08-03T05:04:46;7.75;;;3.00;;
59042;SDS011;44826;51.596;5.624;2022-08-03T05:07:12;7.53;;;3.28;;
59042;SDS011;44826;51.596;5.624;2022-08-03T05:09:38;6.05;;;2.70;;
59042;SDS011;44826;51.596;5.624;2022-08-03T05:12:04;8.38;;;3.10;;
59042;SDS011;44826;51.596;5.624;2022-08-03T05:14:31;7.88;;;3.20;;
59042;SDS011;44826;51.596;5.624;2022-08-03T05:16:57;8.77;;;2.75;;
59042;SDS011;44826;51.596;5.624;2022-08-03T05:19:22;7.75;;;2.95;;
59042;SDS011;44826;51.596;5.624;2022-08-03T05:21:47;6.43;;;2.80;;
59042;SDS011;44826;51.596;5.624;2022-08-03T05:24:13;10.38;;;3.10;;
59042;SDS011;44826;51.596;5.624;2022-08-03T05:26:38;9.88;;;3.15;;
59042;SDS011;44826;51.596;5.624;2022-08-03T05:29:03;9.55;;;3.28;;
59042;SDS011;44826;51.596;5.624;2022-08-03T05:31:28;4.97;;;2.97;;
59042;SDS011;44826;51.596;5.624;2022-08-03T05:33:55;6.10;;;2.72;;
59042;SDS011;44826;51.596;5.624;2022-08-03T05:36:21;7.22;;;3.10;;
59042;SDS011;44826;51.596;5.624;2022-08-03T05:38:46;6.20;;;3.00;;
59042;SDS011;44826;51.596;5.624;2022-08-03T05:41:11;5.35;;;2.72;;
59042;SDS011;44826;51.596;5.624;2022-08-03T05:43:37;5.15;;;3.08;;
59042;SDS011;44826;51.596;5.624;2022-08-03T05:46:02;7.43;;;2.90;;
59042;SDS011;44826;51.596;5.624;2022-08-03T05:48:27;6.47;;;2.80;;
59042;SDS011;44826;51.596;5.624;2022-08-03T05:50:52;6.60;;;2.97;;
59042;SDS011;44826;51.596;5.624;2022-08-03T05:53:18;9.35;;;2.80;;
59042;SDS011;44826;51.596;5.624;2022-08-03T05:55:43;6.93;;;2.80;;
59042;SDS011;44826;51.596;5.624;2022-08-03T05:58:08;5.28;;;2.53;;
59042;SDS011;44826;51.596;5.624;2022-08-03T06:00:34;6.03;;;2.58;;
59042;SDS011;44826;51.596;5.624;2022-08-03T06:02:59;5.50;;;2.58;;
59042;SDS011;44826;51.596;5.624;2022-08-03T06:05:24;4.60;;;2.38;;
59042;SDS011;44826;51.596;5.624;2022-08-03T06:07:52;5.38;;;2.53;;
59042;SDS011;44826;51.596;5.624;2022-08-03T06:10:17;6.50;;;2.38;;
59042;SDS011;44826;51.596;5.624;2022-08-03T06:12:42;6.53;;;2.47;;
59042;SDS011;44826;51.596;5.624;2022-08-03T06:15:11;9.82;;;2.50;;
59042;SDS011;44826;51.596;5.624;2022-08-03T06:17:43;5.70;;;2.08;;
59042;SDS011;44826;51.596;5.624;2022-08-03T06:20:12;10.57;;;2.50;;
59042;SDS011;44826;51.596;5.624;2022-08-03T06:22:37;7.53;;;2.40;;
59042;SDS011;44826;51.596;5.624;2022-08-03T06:25:03;5.97;;;2.20;;
59042;SDS011;44826;51.596;5.624;2022-08-03T06:27:29;5.45;;;1.83;;
59042;SDS011;44826;51.596;5.624;2022-08-03T06:29:54;6.53;;;2.40;;
59042;SDS011;44826;51.596;5.624;2022-08-03T06:32:19;5.35;;;2.00;;
59042;SDS011;44826;51.596;5.624;2022-08-03T06:34:46;7.72;;;2.10;;
59042;SDS011;44826;51.596;5.624;2022-08-03T06:37:12;5.75;;;1.92;;
59042;SDS011;44826;51.596;5.624;2022-08-03T06:39:37;7.45;;;1.83;;
59042;SDS011;44826;51.596;5.624;2022-08-03T06:42:02;6.65;;;2.03;;
59042;SDS011;44826;51.596;5.624;2022-08-03T06:44:28;7.13;;;2.15;;
59042;SDS011;44826;51.596;5.624;2022-08-03T06:46:54;3.45;;;1.52;;
59042;SDS011;44826;51.596;5.624;2022-08-03T06:49:19;7.22;;;1.65;;
59042;SDS011;44826;51.596;5.624;2022-08-03T06:51:44;4.38;;;1.83;;
59042;SDS011;44826;51.596;5.624;2022-08-03T06:54:10;5.65;;;1.63;;
59042;SDS011;44826;51.596;5.624;2022-08-03T06:56:36;11.18;;;1.70;;
59042;SDS011;44826;51.596;5.624;2022-08-03T06:59:01;8.35;;;1.60;;
59042;SDS011;44826;51.596;5.624;2022-08-03T07:01:27;6.18;;;1.35;;
59042;SDS011;44826;51.596;5.624;2022-08-03T07:03:52;7.15;;;1.52;;
59042;SDS011;44826;51.596;5.624;2022-08-03T07:06:18;8.57;;;1.77;;
59042;SDS011;44826;51.596;5.624;2022-08-03T07:08:44;6.75;;;1.50;;
59042;SDS011;44826;51.596;5.624;2022-08-03T07:11:09;6.80;;;1.30;;
59042;SDS011;44826;51.596;5.624;2022-08-03T07:13:34;6.38;;;1.60;;
59042;SDS011;44826;51.596;5.624;2022-08-03T07:15:59;9.20;;;1.55;;
59042;SDS011;44826;51.596;5.624;2022-08-03T07:18:25;6.85;;;1.40;;
59042;SDS011;44826;51.596;5.624;2022-08-03T07:20:50;10.30;;;1.70;;
59042;SDS011;44826;51.596;5.624;2022-08-03T07:23:15;7.60;;;1.30;;
59042;SDS011;44826;51.596;5.624;2022-08-03T07:25:41;11.80;;;1.48;;
59042;SDS011;44826;51.596;5.624;2022-08-03T07:28:06;7.20;;;1.25;;
59042;SDS011;44826;51.596;5.624;2022-08-03T07:30:32;7.72;;;1.38;;
59042;SDS011;44826;51.596;5.624;2022-08-03T07:32:57;7.70;;;1.52;;
59042;SDS011;44826;51.596;5.624;2022-08-03T07:35:23;8.07;;;1.73;;
59042;SDS011;44826;51.596;5.624;2022-08-03T07:37:48;7.75;;;1.75;;
59042;SDS011;44826;51.596;5.624;2022-08-03T07:40:13;8.40;;;1.48;;
59042;SDS011;44826;51.596;5.624;2022-08-03T07:42:38;8.77;;;1.90;;
59042;SDS011;44826;51.596;5.624;2022-08-03T07:45:04;10.82;;;1.85;;
59042;SDS011;44826;51.596;5.624;2022-08-03T07:47:30;8.38;;;1.35;;
59042;SDS011;44826;51.596;5.624;2022-08-03T07:49:56;8.75;;;1.50;;
59042;SDS011;44826;51.596;5.624;2022-08-03T07:52:21;7.55;;;1.77;;
59042;SDS011;44826;51.596;5.624;2022-08-03T07:55:05;8.43;;;1.67;;
59042;SDS011;44826;51.596;5.624;2022-08-03T07:57:32;10.60;;;1.65;;
59042;SDS011;44826;51.596;5.624;2022-08-03T07:59:58;7.65;;;1.50;;
59042;SDS011;44826;51.596;5.624;2022-08-03T08:02:23;7.57;;;1.45;;
59042;SDS011;44826;51.596;5.624;2022-08-03T08:04:49;5.50;;;1.50;;
59042;SDS011;44826;51.596;5.624;2022-08-03T08:07:14;6.95;;;1.38;;
59042;SDS011;44826;51.596;5.624;2022-08-03T08:09:39;7.60;;;1.52;;
59042;SDS011;44826;51.596;5.624;2022-08-03T08:12:05;8.00;;;1.58;;
59042;SDS011;44826;51.596;5.624;2022-08-03T08:14:32;8.32;;;1.60;;
59042;SDS011;44826;51.596;5.624;2022-08-03T08:16:58;6.55;;;1.48;;
59042;SDS011;44826;51.596;5.624;2022-08-03T08:19:23;8.07;;;1.42;;
59042;SDS011;44826;51.596;5.624;2022-08-03T08:21:48;11.93;;;1.88;;
59042;SDS011;44826;51.596;5.624;2022-08-03T08:24:13;9.95;;;1.33;;
59042;SDS011;44826;51.596;5.624;2022-08-03T08:26:39;7.38;;;1.58;;
59042;SDS011;44826;51.596;5.624;2022-08-03T08:29:04;4.68;;;1.17;;
59042;SDS011;44826;51.596;5.624;2022-08-03T08:31:30;9.18;;;1.40;;
59042;SDS011;44826;51.596;5.624;2022-08-03T08:33:55;9.93;;;1.20;;
59042;SDS011;44826;51.596;5.624;2022-08-03T08:36:21;8.63;;;1.35;;
59042;SDS011;44826;51.596;5.624;2022-08-03T08:38:46;14.07;;;1.45;;
59042;SDS011;44826;51.596;5.624;2022-08-03T08:41:12;9.18;;;1.25;;
59042;SDS011;44826;51.596;5.624;2022-08-03T08:43:38;8.25;;;1.45;;
59042;SDS011;44826;51.596;5.624;2022-08-03T08:46:04;6.63;;;1.48;;
59042;SDS011;44826;51.596;5.624;2022-08-03T08:48:34;9.23;;;1.50;;
59042;SDS011;44826;51.596;5.624;2022-08-03T08:51:04;10.18;;;1.33;;
59042;SDS011;44826;51.596;5.624;2022-08-03T08:53:29;7.72;;;1.38;;
59042;SDS011;44826;51.596;5.624;2022-08-03T08:55:57;8.07;;;1.50;;
59042;SDS011;44826;51.596;5.624;2022-08-03T08:58:24;9.25;;;1.38;;
59042;SDS011;44826;51.596;5.624;2022-08-03T09:00:52;9.23;;;1.50;;
59042;SDS011;44826;51.596;5.624;2022-08-03T09:03:17;8.85;;;1.50;;
59042;SDS011;44826;51.596;5.624;2022-08-03T09:05:43;7.65;;;1.30;;
59042;SDS011;44826;51.596;5.624;2022-08-03T09:08:09;8.00;;;1.20;;
59042;SDS011;44826;51.596;5.624;2022-08-03T09:10:34;7.28;;;1.30;;
59042;SDS011;44826;51.596;5.624;2022-08-03T09:12:59;8.30;;;1.38;;
59042;SDS011;44826;51.596;5.624;2022-08-03T09:15:26;6.13;;;1.33;;
59042;SDS011;44826;51.596;5.624;2022-08-03T09:17:53;5.85;;;1.35;;
59042;SDS011;44826;51.596;5.624;2022-08-03T09:20:20;7.75;;;1.60;;
59042;SDS011;44826;51.596;5.624;2022-08-03T09:23:03;10.20;;;1.67;;
59042;SDS011;44826;51.596;5.624;2022-08-03T09:25:40;6.57;;;1.35;;
59042;SDS011;44826;51.596;5.624;2022-08-03T09:28:13;6.88;;;1.15;;
59042;SDS011;44826;51.596;5.624;2022-08-03T09:30:41;9.75;;;1.50;;
59042;SDS011;44826;51.596;5.624;2022-08-03T09:33:09;7.10;;;1.30;;
59042;SDS011;44826;51.596;5.624;2022-08-03T09:35:42;8.13;;;1.45;;
59042;SDS011;44826;51.596;5.624;2022-08-03T09:38:10;9.05;;;1.52;;
59042;SDS011;44826;51.596;5.624;2022-08-03T09:40:39;8.90;;;1.95;;
59042;SDS011;44826;51.596;5.624;2022-08-03T09:43:06;9.55;;;1.60;;
59042;SDS011;44826;51.596;5.624;2022-08-03T09:45:32;6.88;;;1.25;;
59042;SDS011;44826;51.596;5.624;2022-08-03T09:50:51;9.88;;;1.38;;
59042;SDS011;44826;51.596;5.624;2022-08-03T09:53:21;10.00;;;1.70;;
59042;SDS011;44826;51.596;5.624;2022-08-03T09:55:52;7.43;;;1.40;;
59042;SDS011;44826;51.596;5.624;2022-08-03T09:58:21;9.90;;;1.33;;
59042;SDS011;44826;51.596;5.624;2022-08-03T10:01:03;9.57;;;1.52;;
59042;SDS011;44826;51.596;5.624;2022-08-03T10:03:30;9.93;;;1.73;;
59042;SDS011;44826;51.596;5.624;2022-08-03T10:06:13;8.02;;;1.48;;
59042;SDS011;44826;51.596;5.624;2022-08-03T10:08:43;6.30;;;1.38;;
59042;SDS011;44826;51.596;5.624;2022-08-03T10:11:09;9.63;;;1.58;;
59042;SDS011;44826;51.596;5.624;2022-08-03T10:13:34;12.40;;;1.30;;
59042;SDS011;44826;51.596;5.624;2022-08-03T10:16:00;10.18;;;1.52;;
59042;SDS011;44826;51.596;5.624;2022-08-03T10:18:28;9.32;;;1.40;;
59042;SDS011;44826;51.596;5.624;2022-08-03T10:20:54;11.60;;;1.90;;
59042;SDS011;44826;51.596;5.624;2022-08-03T10:23:27;11.02;;;1.52;;
59042;SDS011;44826;51.596;5.624;2022-08-03T10:25:59;8.70;;;1.33;;
59042;SDS011;44826;51.596;5.624;2022-08-03T10:28:27;7.38;;;1.70;;
59042;SDS011;44826;51.596;5.624;2022-08-03T10:31:03;9.65;;;1.50;;
59042;SDS011;44826;51.596;5.624;2022-08-03T10:33:31;8.52;;;1.55;;
59042;SDS011;44826;51.596;5.624;2022-08-03T10:36:01;18.17;;;2.38;;
59042;SDS011;44826;51.596;5.624;2022-08-03T10:38:30;10.95;;;1.65;;
59042;SDS011;44826;51.596;5.624;2022-08-03T10:41:01;10.57;;;1.70;;
59042;SDS011;44826;51.596;5.624;2022-08-03T10:43:29;11.40;;;1.60;;
59042;SDS011;44826;51.596;5.624;2022-08-03T10:46:09;12.55;;;1.65;;
59042;SDS011;44826;51.596;5.624;2022-08-03T10:48:35;12.45;;;1.85;;
59042;SDS011;44826;51.596;5.624;2022-08-03T10:51:01;11.55;;;1.70;;
59042;SDS011;44826;51.596;5.624;2022-08-03T10:53:32;7.43;;;1.42;;
59042;SDS011;44826;51.596;5.624;2022-08-03T10:56:03;14.35;;;1.70;;
59042;SDS011;44826;51.596;5.624;2022-08-03T10:58:51;11.07;;;1.88;;
59042;SDS011;44826;51.596;5.624;2022-08-03T11:01:17;13.90;;;2.17;;
59042;SDS011;44826;51.596;5.624;2022-08-03T11:06:28;11.93;;;1.60;;
59042;SDS011;44826;51.596;5.624;2022-08-03T11:11:37;13.60;;;1.88;;
59042;SDS011;44826;51.596;5.624;2022-08-03T11:14:08;9.65;;;1.58;;
59042;SDS011;44826;51.596;5.624;2022-08-03T11:16:42;9.27;;;1.50;;
59042;SDS011;44826;51.596;5.624;2022-08-03T11:19:11;13.98;;;2.08;;
59042;SDS011;44826;51.596;5.624;2022-08-03T11:45:57;10.15;;;1.20;;
59042;SDS011;44826;51.596;5.624;2022-08-03T11:48:26;7.78;;;1.52;;
59042;SDS011;44826;51.596;5.624;2022-08-03T11:50:57;7.65;;;1.20;;
59042;SDS011;44826;51.596;5.624;2022-08-03T11:53:23;9.63;;;1.63;;
59042;SDS011;44826;51.596;5.624;2022-08-03T11:55:48;9.25;;;1.35;;
59042;SDS011;44826;51.596;5.624;2022-08-03T11:58:14;9.15;;;1.45;;
59042;SDS011;44826;51.596;5.624;2022-08-03T12:00:41;7.00;;;1.30;;
59042;SDS011;44826;51.596;5.624;2022-08-03T12:03:07;6.43;;;1.45;;
59042;SDS011;44826;51.596;5.624;2022-08-03T12:08:04;5.37;;;1.10;;
59042;SDS011;44826;51.596;5.624;2022-08-03T12:10:30;4.13;;;1.10;;
59042;SDS011;44826;51.596;5.624;2022-08-03T12:12:56;7.05;;;1.30;;
59042;SDS011;44826;51.596;5.624;2022-08-03T12:15:27;8.85;;;1.30;;
59042;SDS011;44826;51.596;5.624;2022-08-03T12:17:54;8.65;;;1.00;;
59042;SDS011;44826;51.596;5.624;2022-08-03T12:20:21;7.63;;;1.15;;
59042;SDS011;44826;51.596;5.624;2022-08-03T12:22:49;5.05;;;1.10;;
59042;SDS011;44826;51.596;5.624;2022-08-03T12:25:19;6.80;;;1.30;;
59042;SDS011;44826;51.596;5.624;2022-08-03T12:27:46;6.43;;;1.08;;
59042;SDS011;44826;51.596;5.624;2022-08-03T12:30:11;6.25;;;1.30;;
59042;SDS011;44826;51.596;5.624;2022-08-03T12:32:37;8.27;;;1.30;;
59042;SDS011;44826;51.596;5.624;2022-08-03T12:35:03;8.27;;;1.30;;
59042;SDS011;44826;51.596;5.624;2022-08-03T12:37:30;7.35;;;1.50;;
59042;SDS011;44826;51.596;5.624;2022-08-03T12:39:56;4.65;;;1.20;;
59042;SDS011;44826;51.596;5.624;2022-08-03T12:42:34;9.48;;;1.73;;
59042;SDS011;44826;51.596;5.624;2022-08-03T12:45:17;7.70;;;1.50;;
59042;SDS011;44826;51.596;5.624;2022-08-03T12:47:54;6.10;;;1.38;;
59042;SDS011;44826;51.596;5.624;2022-08-03T12:50:31;7.53;;;1.40;;
59042;SDS011;44826;51.596;5.624;2022-08-03T12:53:01;5.35;;;1.23;;
59042;SDS011;44826;51.596;5.624;2022-08-03T12:55:28;6.20;;;1.35;;
59042;SDS011;44826;51.596;5.624;2022-08-03T12:58:03;7.55;;;1.45;;
59042;SDS011;44826;51.596;5.624;2022-08-03T13:00:30;7.28;;;1.23;;
59042;SDS011;44826;51.596;5.624;2022-08-03T13:03:00;5.55;;;1.42;;
59042;SDS011;44826;51.596;5.624;2022-08-03T13:05:27;8.23;;;1.42;;
59042;SDS011;44826;51.596;5.624;2022-08-03T13:07:53;8.70;;;1.40;;
59042;SDS011;44826;51.596;5.624;2022-08-03T13:10:28;5.53;;;1.40;;
59042;SDS011;44826;51.596;5.624;2022-08-03T13:12:55;8.98;;;1.23;;
59042;SDS011;44826;51.596;5.624;2022-08-03T13:15:22;9.18;;;1.70;;
59042;SDS011;44826;51.596;5.624;2022-08-03T13:17:48;6.88;;;1.92;;
59042;SDS011;44826;51.596;5.624;2022-08-03T13:20:13;5.63;;;1.63;;
59042;SDS011;44826;51.596;5.624;2022-08-03T13:22:38;9.77;;;1.60;;
59042;SDS011;44826;51.596;5.624;2022-08-03T13:25:03;8.40;;;1.35;;
59042;SDS011;44826;51.596;5.624;2022-08-03T13:27:29;3.92;;;1.40;;
59042;SDS011;44826;51.596;5.624;2022-08-03T13:29:55;8.18;;;1.30;;
59042;SDS011;44826;51.596;5.624;2022-08-03T13:32:21;6.32;;;1.42;;
59042;SDS011;44826;51.596;5.624;2022-08-03T13:34:47;7.63;;;1.40;;
59042;SDS011;44826;51.596;5.624;2022-08-03T13:37:12;8.15;;;1.50;;
59042;SDS011;44826;51.596;5.624;2022-08-03T13:39:38;4.68;;;1.38;;
59042;SDS011;44826;51.596;5.624;2022-08-03T13:42:03;5.75;;;1.20;;
59042;SDS011;44826;51.596;5.624;2022-08-03T13:44:29;4.95;;;1.20;;
59042;SDS011;44826;51.596;5.624;2022-08-03T13:46:58;4.43;;;1.13;;
59042;SDS011;44826;51.596;5.624;2022-08-03T13:49:24;4.35;;;1.35;;
59042;SDS011;44826;51.596;5.624;2022-08-03T13:51:50;4.15;;;1.30;;
59042;SDS011;44826;51.596;5.624;2022-08-03T13:54:16;4.20;;;1.40;;
59042;SDS011;44826;51.596;5.624;2022-08-03T13:56:41;6.13;;;1.30;;
59042;SDS011;44826;51.596;5.624;2022-08-03T13:59:07;4.63;;;1.55;;
59042;SDS011;44826;51.596;5.624;2022-08-03T14:01:34;6.50;;;1.40;;
59042;SDS011;44826;51.596;5.624;2022-08-03T14:04:00;5.63;;;1.70;;
59042;SDS011;44826;51.596;5.624;2022-08-03T14:06:25;4.50;;;1.25;;
59042;SDS011;44826;51.596;5.624;2022-08-03T14:08:50;4.85;;;1.30;;
59042;SDS011;44826;51.596;5.624;2022-08-03T14:11:16;6.10;;;1.40;;
59042;SDS011;44826;51.596;5.624;2022-08-03T14:13:42;4.13;;;1.25;;
59042;SDS011;44826;51.596;5.624;2022-08-03T14:16:07;3.78;;;1.30;;
59042;SDS011;44826;51.596;5.624;2022-08-03T14:18:33;5.28;;;1.20;;
59042;SDS011;44826;51.596;5.624;2022-08-03T14:20:58;7.22;;;1.42;;
59042;SDS011;44826;51.596;5.624;2022-08-03T14:23:24;3.50;;;1.30;;
59042;SDS011;44826;51.596;5.624;2022-08-03T14:25:50;3.83;;;1.38;;
59042;SDS011;44826;51.596;5.624;2022-08-03T14:28:15;4.18;;;1.27;;
59042;SDS011;44826;51.596;5.624;2022-08-03T14:30:41;8.07;;;1.30;;
59042;SDS011;44826;51.596;5.624;2022-08-03T14:33:07;5.00;;;1.17;;
59042;SDS011;44826;51.596;5.624;2022-08-03T14:35:32;3.33;;;1.20;;
59042;SDS011;44826;51.596;5.624;2022-08-03T14:37:57;6.63;;;1.42;;
59042;SDS011;44826;51.596;5.624;2022-08-03T14:40:22;5.40;;;1.20;;
59042;SDS011;44826;51.596;5.624;2022-08-03T14:42:48;4.10;;;1.20;;
59042;SDS011;44826;51.596;5.624;2022-08-03T14:45:13;8.20;;;1.50;;
59042;SDS011;44826;51.596;5.624;2022-08-03T14:47:39;2.10;;;0.98;;
59042;SDS011;44826;51.596;5.624;2022-08-03T14:50:05;4.63;;;1.45;;
59042;SDS011;44826;51.596;5.624;2022-08-03T14:52:31;6.22;;;1.08;;
59042;SDS011;44826;51.596;5.624;2022-08-03T14:54:57;5.35;;;1.25;;
59042;SDS011;44826;51.596;5.624;2022-08-03T14:57:23;2.95;;;0.90;;
59042;SDS011;44826;51.596;5.624;2022-08-03T14:59:48;5.18;;;1.20;;
59042;SDS011;44826;51.596;5.624;2022-08-03T15:02:13;4.18;;;1.10;;
59042;SDS011;44826;51.596;5.624;2022-08-03T15:04:39;3.78;;;1.10;;
59042;SDS011;44826;51.596;5.624;2022-08-03T15:07:04;7.30;;;1.30;;
59042;SDS011;44826;51.596;5.624;2022-08-03T15:09:30;2.55;;;1.10;;
59042;SDS011;44826;51.596;5.624;2022-08-03T15:11:55;4.15;;;1.20;;
59042;SDS011;44826;51.596;5.624;2022-08-03T15:14:21;5.72;;;1.15;;
59042;SDS011;44826;51.596;5.624;2022-08-03T15:16:46;3.30;;;1.10;;
59042;SDS011;44826;51.596;5.624;2022-08-03T15:19:11;2.72;;;1.20;;
59042;SDS011;44826;51.596;5.624;2022-08-03T15:21:37;2.08;;;1.08;;
59042;SDS011;44826;51.596;5.624;2022-08-03T15:24:02;10.10;;;1.40;;
59042;SDS011;44826;51.596;5.624;2022-08-03T15:26:28;5.78;;;1.30;;
59042;SDS011;44826;51.596;5.624;2022-08-03T15:28:53;7.53;;;1.30;;
59042;SDS011;44826;51.596;5.624;2022-08-03T15:31:21;2.95;;;1.08;;